Time;durP1;ratioP1;P1;durP2;ratioP2;P2;SDS_P1;SDS_P2;PMS_P1;PMS_P2;Temp;Humidity;BMP_temperature;BMP_pressure;BME280_temperature;BME280_humidity;BME280_pressure;Samples;Min_cycle;Max_cycle;Signal;HPM_P1;HPM_P2
2021/06/17 00:01:17;;;;;;;15.68;5.30;;;;;;;15.32;78.74;96567.44;5114963;28;20027;-63
2021/06/17 00:03:43;;;;;;;11.88;5.00;;;;;;;15.33;78.35;96574.44;5114899;28;20030;-62
2021/06/17 00:06:08;;;;;;;8.20;6.55;;;;;;;15.30;78.71;96574.59;5114912;28;20102;-63
2021/06/17 00:08:34;;;;;;;6.13;5.30;;;;;;;15.26;78.99;96571.28;5114709;28;20043;-61
2021/06/17 00:11:00;;;;;;;12.95;6.15;;;;;;;15.25;78.75;96568.72;5114694;28;20028;-64
2021/06/17 00:13:28;;;;;;;7.88;5.70;;;;;;;15.20;78.90;96561.09;5114710;28;20469;-62
2021/06/17 00:15:57;;;;;;;8.98;5.60;;;;;;;15.17;79.15;96555.97;5114469;28;20455;-62
2021/06/17 00:18:24;;;;;;;11.90;6.25;;;;;;;15.12;79.03;96555.41;5114593;28;20035;-62
2021/06/17 00:20:50;;;;;;;22.52;7.00;;;;;;;15.13;78.71;96552.69;5114546;28;20503;-60
2021/06/17 00:23:16;;;;;;;13.65;5.35;;;;;;;15.15;78.68;96553.44;5114522;28;20023;-63
2021/06/17 00:25:42;;;;;;;15.30;5.43;;;;;;;15.14;78.03;96551.75;5114501;28;20061;-62
2021/06/17 00:28:07;;;;;;;17.75;4.80;;;;;;;15.15;78.27;96548.16;5114327;28;20487;-62
2021/06/17 00:30:34;;;;;;;7.80;4.28;;;;;;;15.12;77.70;96553.63;5114398;28;20381;-63
2021/06/17 00:33:00;;;;;;;11.82;5.35;;;;;;;15.11;77.47;96548.44;5114333;28;20027;-62
2021/06/17 00:35:28;;;;;;;9.40;5.15;;;;;;;15.13;77.63;96552.69;5114359;28;20027;-60
2021/06/17 00:37:54;;;;;;;7.85;4.68;;;;;;;15.09;76.99;96548.53;5114244;28;20465;-60
2021/06/17 00:40:21;;;;;;;10.80;4.35;;;;;;;15.07;76.85;96545.13;5114064;28;20024;-62
2021/06/17 00:42:49;;;;;;;8.95;4.57;;;;;;;15.01;77.28;96537.56;5114179;28;20461;-62
2021/06/17 00:45:25;;;;;;;17.05;5.93;;;;;;;14.93;77.91;96531.88;5114078;28;20449;-63
2021/06/17 00:47:51;;;;;;;10.27;4.72;;;;;;;14.77;78.37;96523.03;5114073;28;20062;-60
2021/06/17 00:50:18;;;;;;;12.27;4.97;;;;;;;14.70;78.46;96526.94;5114094;28;20035;-62
2021/06/17 00:52:44;;;;;;;12.07;4.50;;;;;;;14.70;78.66;96523.44;5114165;28;20072;-63
2021/06/17 00:55:11;;;;;;;12.80;5.00;;;;;;;14.71;78.11;96519.88;5114009;28;20027;-60
2021/06/17 00:57:38;;;;;;;14.77;4.93;;;;;;;14.70;77.96;96524.31;5114017;28;20073;-62
2021/06/17 01:00:06;;;;;;;12.50;5.20;;;;;;;14.52;79.16;96524.38;5113732;28;20027;-60
2021/06/17 01:02:31;;;;;;;10.52;5.40;;;;;;;14.49;79.18;96521.06;5113584;28;20397;-62
2021/06/17 01:04:57;;;;;;;12.75;6.43;;;;;;;14.51;79.18;96520.03;5113855;28;20028;-61
2021/06/17 01:07:34;;;;;;;11.55;4.68;;;;;;;14.55;78.72;96517.22;5113801;28;20028;-61
2021/06/17 01:10:05;;;;;;;16.77;5.88;;;;;;;14.55;78.60;96514.59;5113761;28;20028;-61
2021/06/17 01:12:47;;;;;;;10.13;5.20;;;;;;;14.56;78.40;96513.66;5113778;28;20027;-60
2021/06/17 01:15:19;;;;;;;6.93;5.32;;;;;;;14.53;78.81;96512.91;5113687;28;20489;-63
2021/06/17 01:18:07;;;;;;;13.18;6.32;;;;;;;14.55;78.99;96509.34;5113725;28;20034;-63
2021/06/17 01:20:42;;;;;;;10.45;6.75;;;;;;;14.61;78.91;96507.22;5113581;28;20381;-61
2021/06/17 01:23:37;;;;;;;10.82;5.28;;;;;;;14.59;79.20;96502.97;5113695;28;20029;-62
2021/06/17 01:26:20;;;;;;;14.73;6.85;;;;;;;14.45;79.70;96501.94;5113702;28;20063;-63
2021/06/17 01:28:48;;;;;;;6.22;5.47;;;;;;;14.30;80.27;96503.59;5113634;28;20084;-62
2021/06/17 01:31:20;;;;;;;11.07;5.95;;;;;;;14.24;80.44;96503.97;5113461;28;20024;-62
2021/06/17 01:33:48;;;;;;;11.02;7.32;;;;;;;14.18;80.84;96507.75;5113558;28;20031;-62
2021/06/17 01:36:18;;;;;;;8.50;6.50;;;;;;;14.10;81.09;96499.44;5113418;28;20027;-61
2021/06/17 01:38:54;;;;;;;14.77;6.47;;;;;;;14.05;81.41;96501.47;5113482;28;20377;-62
2021/06/17 01:41:22;;;;;;;8.00;6.70;;;;;;;14.00;81.54;96502.53;5117820;28;20045;-62
2021/06/17 01:43:49;;;;;;;10.40;7.03;;;;;;;14.01;81.85;96498.13;5117568;28;20024;-60
2021/06/17 01:46:16;;;;;;;7.70;6.28;;;;;;;14.01;82.06;96498.13;5117610;28;20446;-62
2021/06/17 01:48:43;;;;;;;10.10;6.30;;;;;;;14.10;81.71;96496.78;5117539;28;20392;-62
2021/06/17 01:51:09;;;;;;;23.23;6.38;;;;;;;14.17;81.06;96498.16;5117453;28;20462;-61
2021/06/17 01:53:37;;;;;;;10.18;5.57;;;;;;;14.30;80.64;96500.16;5117707;28;20059;-62
2021/06/17 01:56:03;;;;;;;10.13;5.53;;;;;;;14.34;80.39;96502.53;5117314;28;20035;-60
2021/06/17 01:58:31;;;;;;;16.67;5.53;;;;;;;14.38;79.22;96497.94;5117336;28;20023;-63
2021/06/17 02:00:59;;;;;;;19.42;7.18;;;;;;;14.43;79.44;96508.22;5117165;28;20039;-61
2021/06/17 02:03:26;;;;;;;8.68;5.18;;;;;;;14.47;78.93;96502.72;5117294;28;20031;-62
2021/06/17 02:05:52;;;;;;;17.13;4.95;;;;;;;14.48;78.45;96507.03;5117272;28;20031;-63
2021/06/17 02:08:19;;;;;;;11.27;6.15;;;;;;;14.49;78.41;96506.13;5117107;28;20027;-63
2021/06/17 02:10:46;;;;;;;10.57;4.70;;;;;;;14.49;78.11;96506.13;5117053;28;20015;-62
2021/06/17 02:13:15;;;;;;;8.90;4.63;;;;;;;14.51;77.64;96503.41;5117045;28;20052;-61
2021/06/17 02:15:46;;;;;;;8.80;4.70;;;;;;;14.49;77.89;96503.50;5116856;28;20470;-60
2021/06/17 02:18:14;;;;;;;9.73;5.38;;;;;;;14.43;77.84;96513.47;5117003;28;20074;-61
2021/06/17 02:20:41;;;;;;;10.02;5.07;;;;;;;14.43;77.26;96516.13;5116764;28;20035;-63
2021/06/17 02:23:11;;;;;;;8.70;4.60;;;;;;;14.35;77.22;96517.38;5116915;28;20473;-61
2021/06/17 02:25:37;;;;;;;7.25;5.05;;;;;;;14.20;78.35;96516.41;5117032;28;20176;-63
2021/06/17 02:28:07;;;;;;;14.35;6.38;;;;;;;14.07;79.09;96521.47;5116855;28;20545;-61
2021/06/17 02:30:36;;;;;;;7.07;4.67;;;;;;;14.13;78.88;96518.53;5116779;28;20034;-63
2021/06/17 02:33:06;;;;;;;7.18;4.50;;;;;;;14.18;77.97;96512.19;5116711;28;20035;-61
2021/06/17 02:35:32;;;;;;;5.53;4.97;;;;;;;14.19;77.62;96516.50;5116718;28;20023;-62
2021/06/17 02:38:01;;;;;;;11.05;5.50;;;;;;;14.12;78.17;96516.00;5116644;28;20488;-62
2021/06/17 02:40:30;;;;;;;7.00;5.65;;;;;;;14.07;78.22;96516.22;5116501;28;20163;-61
2021/06/17 02:42:56;;;;;;;15.60;6.18;;;;;;;14.09;78.11;96524.88;5116580;28;20023;-62
2021/06/17 02:45:30;;;;;;;17.65;5.45;;;;;;;14.08;78.05;96520.53;5116461;28;20020;-63
2021/06/17 02:47:56;;;;;;;7.43;5.13;;;;;;;14.06;77.81;96519.75;5116472;28;20359;-63
2021/06/17 02:50:22;;;;;;;13.55;5.30;;;;;;;14.05;78.46;96518.06;5115571;28;20027;-61
2021/06/17 02:52:48;;;;;;;14.55;5.18;;;;;;;14.07;77.98;96518.84;5115944;28;20112;-62
2021/06/17 02:55:14;;;;;;;7.55;4.70;;;;;;;14.09;77.30;96518.78;5116217;28;20065;-61
2021/06/17 02:57:57;;;;;;;12.43;5.18;;;;;;;13.99;77.56;96521.03;5116235;28;20074;-62
2021/06/17 03:00:28;;;;;;;8.15;5.90;;;;;;;14.01;77.69;96519.16;5116230;28;20112;-61
2021/06/17 03:03:22;;;;;;;7.53;5.00;;;;;;;14.06;77.47;96525.03;5116342;28;20088;-60
2021/06/17 03:06:17;;;;;;;14.32;5.93;;;;;;;14.03;77.26;96528.66;5116130;28;20067;-62
2021/06/17 03:09:12;;;;;;;9.98;5.57;;;;;;;13.98;77.60;96525.44;5116007;28;20031;-61
2021/06/17 03:11:41;;;;;;;7.10;4.65;;;;;;;13.99;77.47;96527.13;5113202;28;20379;-62
2021/06/17 03:14:13;;;;;;;7.05;4.10;;;;;;;13.99;76.82;96528.91;5115969;28;20027;-62
2021/06/17 03:16:42;;;;;;;10.30;5.03;;;;;;;13.90;76.90;96530.25;5115682;28;20048;-60
2021/06/17 03:19:08;;;;;;;7.38;4.68;;;;;;;13.83;77.17;96526.22;5115731;28;20129;-60
2021/06/17 03:21:40;;;;;;;8.50;4.28;;;;;;;13.88;77.48;96525.06;5115719;28;20023;-60
2021/06/17 03:24:08;;;;;;;10.23;4.53;;;;;;;13.88;77.57;96522.44;5115687;28;20024;-60
2021/06/17 03:26:37;;;;;;;8.43;4.82;;;;;;;14.07;77.42;96525.88;5115727;28;20058;-62
2021/06/17 03:29:04;;;;;;;4.88;4.45;;;;;;;14.32;77.06;96528.06;5115548;28;20024;-60
2021/06/17 03:31:32;;;;;;;11.80;4.63;;;;;;;14.71;76.00;96527.75;5115577;28;20028;-62
2021/06/17 03:33:58;;;;;;;17.15;3.90;;;;;;;14.96;74.86;96537.81;5115584;28;20020;-62
2021/06/17 03:36:25;;;;;;;7.05;3.33;;;;;;;15.12;74.26;96536.97;5115542;28;20011;-62
2021/06/17 03:38:53;;;;;;;6.65;3.20;;;;;;;15.50;73.97;96535.72;5115317;28;20028;-62
2021/06/17 03:41:19;;;;;;;8.93;3.08;;;;;;;16.01;72.11;96540.66;5115402;28;20039;-61
2021/06/17 03:43:47;;;;;;;11.82;3.13;;;;;;;16.31;71.49;96538.06;5115319;28;20045;-63
2021/06/17 03:46:14;;;;;;;6.35;3.00;;;;;;;16.33;72.10;96546.69;5115255;28;20393;-60
2021/06/17 03:48:44;;;;;;;6.13;3.70;;;;;;;16.25;72.20;96553.31;5115138;28;20019;-63
2021/06/17 03:51:13;;;;;;;7.57;3.60;;;;;;;16.14;72.31;96553.94;5115240;28;20366;-63
2021/06/17 03:53:39;;;;;;;11.48;4.05;;;;;;;16.07;72.04;96554.44;5115113;28;20481;-62
2021/06/17 03:56:06;;;;;;;9.48;3.78;;;;;;;16.00;71.95;96560.06;5096780;28;20431;-61
2021/06/17 03:58:32;;;;;;;3.72;3.25;;;;;;;15.92;71.78;96565.75;5115098;28;20428;-61
2021/06/17 04:00:58;;;;;;;8.48;4.38;;;;;;;15.87;72.30;96567.81;5114879;28;20038;-61
2021/06/17 04:03:28;;;;;;;6.47;3.60;;;;;;;15.77;72.53;96566.66;5114487;28;20028;-62
2021/06/17 04:05:58;;;;;;;9.53;4.50;;;;;;;15.68;73.21;96570.69;5115003;28;20062;-62
2021/06/17 04:08:31;;;;;;;9.48;4.22;;;;;;;15.58;73.97;96573.00;5114908;28;20028;-64
2021/06/17 04:11:02;;;;;;;7.07;4.03;;;;;;;15.61;74.61;96575.47;5114844;28;20020;-63
2021/06/17 04:13:32;;;;;;;8.80;3.58;;;;;;;15.68;73.54;96575.94;5114791;28;20476;-62
2021/06/17 04:16:00;;;;;;;11.13;3.58;;;;;;;15.66;73.72;96575.22;5114533;28;20036;-61
2021/06/17 04:18:28;;;;;;;5.07;3.65;;;;;;;15.65;73.79;96577.00;5114719;28;20037;-62
2021/06/17 04:20:57;;;;;;;6.05;3.25;;;;;;;15.70;73.75;96589.06;5114424;28;20051;-61
2021/06/17 04:23:25;;;;;;;7.50;3.80;;;;;;;15.67;73.60;96590.09;5114609;28;20023;-60
2021/06/17 04:25:53;;;;;;;11.32;4.50;;;;;;;15.60;75.47;96592.25;5114561;28;20024;-62
2021/06/17 04:28:20;;;;;;;18.50;4.25;;;;;;;15.57;75.36;96588.91;5114546;28;20030;-62
2021/06/17 04:30:47;;;;;;;6.63;4.78;;;;;;;15.65;75.42;96597.22;5114442;28;20054;-61
2021/06/17 04:33:18;;;;;;;4.65;3.92;;;;;;;15.71;75.25;96594.25;5114378;28;20019;-61
2021/06/17 04:35:46;;;;;;;8.63;3.17;;;;;;;15.83;75.01;96602.41;5114304;28;20024;-63
2021/06/17 04:38:13;;;;;;;9.55;3.22;;;;;;;15.92;75.01;96597.41;5114241;28;20020;-62
2021/06/17 04:40:40;;;;;;;3.60;3.10;;;;;;;15.99;74.59;96608.50;5114166;28;20032;-62
2021/06/17 04:43:07;;;;;;;9.63;3.58;;;;;;;16.07;74.67;96613.31;5114230;28;20020;-63
2021/06/17 04:45:35;;;;;;;8.32;2.88;;;;;;;16.17;74.80;96614.44;5114297;28;20046;-60
2021/06/17 04:48:08;;;;;;;5.25;2.38;;;;;;;16.27;74.91;96609.50;5114053;28;20469;-60
2021/06/17 04:50:35;;;;;;;4.30;2.80;;;;;;;16.38;74.72;96619.38;5114247;28;20031;-61
2021/06/17 04:53:17;;;;;;;3.15;2.85;;;;;;;16.48;74.83;96608.28;5095875;28;20393;-63
2021/06/17 04:55:46;;;;;;;3.33;2.97;;;;;;;16.68;74.93;96613.19;5113973;28;20036;-63
2021/06/17 04:58:11;;;;;;;3.70;3.20;;;;;;;16.96;75.37;96615.03;5113911;28;20020;-62
2021/06/17 05:00:37;;;;;;;3.40;3.10;;;;;;;17.33;75.74;96622.47;5113977;28;20107;-62
2021/06/17 05:03:03;;;;;;;8.45;3.30;;;;;;;17.88;75.61;96611.88;5113902;28;20103;-64
2021/06/17 05:05:29;;;;;;;3.47;2.80;;;;;;;18.73;74.98;96615.03;5114007;28;20519;-63
2021/06/17 05:10:49;;;;;;;3.90;2.70;;;;;;;20.49;70.49;96612.03;5114176;28;20089;-64
2021/06/17 05:13:21;;;;;;;3.90;2.40;;;;;;;21.11;68.56;96622.38;5113478;28;20031;-61
2021/06/17 05:15:47;;;;;;;3.55;2.72;;;;;;;21.64;66.60;96615.50;5113085;28;20036;-62
2021/06/17 05:18:13;;;;;;;6.18;2.65;;;;;;;22.28;64.83;96611.13;5113627;28;20027;-63
2021/06/17 05:20:39;;;;;;;5.45;2.72;;;;;;;22.48;62.06;96616.53;5113625;28;20031;-64
2021/06/17 05:23:05;;;;;;;5.65;2.60;;;;;;;22.43;62.73;96611.59;5113515;28;20061;-66
2021/06/17 05:25:30;;;;;;;4.82;2.67;;;;;;;22.31;63.43;96618.81;5113569;28;20019;-65
2021/06/17 05:27:56;;;;;;;3.53;2.53;;;;;;;22.20;63.03;96622.41;5113637;28;20103;-65
2021/06/17 05:30:22;;;;;;;3.65;2.85;;;;;;;22.07;63.12;96625.25;5113522;28;20118;-64
2021/06/17 05:32:47;;;;;;;6.40;2.50;;;;;;;22.00;63.76;96620.59;5113436;28;20027;-64
2021/06/17 05:35:13;;;;;;;3.33;2.97;;;;;;;21.93;65.18;96626.41;5113457;28;20099;-65
2021/06/17 05:37:39;;;;;;;2.75;2.50;;;;;;;21.99;66.34;96635.72;5113459;28;20027;-63
2021/06/17 05:40:05;;;;;;;3.90;2.45;;;;;;;22.49;65.38;96628.91;5113297;28;20028;-66
2021/06/17 05:42:31;;;;;;;5.25;2.45;;;;;;;23.10;63.19;96618.41;5113405;28;20023;-64
2021/06/17 05:44:56;;;;;;;2.95;2.75;;;;;;;23.42;58.16;96614.72;5113369;28;20023;-64
2021/06/17 05:47:22;;;;;;;10.57;3.00;;;;;;;23.39;58.95;96617.66;5113372;28;20015;-63
2021/06/17 05:49:48;;;;;;;3.33;2.75;;;;;;;23.29;60.25;96627.44;5113287;28;20055;-65
2021/06/17 05:52:14;;;;;;;2.90;2.60;;;;;;;23.11;61.66;96625.41;5113309;28;20024;-62
2021/06/17 05:54:39;;;;;;;5.38;2.70;;;;;;;23.02;63.26;96627.06;5113319;28;20035;-62
2021/06/17 05:57:06;;;;;;;4.65;3.20;;;;;;;22.99;64.24;96624.66;5113236;28;20028;-63
2021/06/17 05:59:32;;;;;;;3.28;2.53;;;;;;;22.99;63.93;96623.84;5113142;28;20031;-62
2021/06/17 06:01:58;;;;;;;2.70;2.50;;;;;;;23.09;65.12;96624.72;5113396;28;20124;-63
2021/06/17 06:04:23;;;;;;;4.18;2.47;;;;;;;23.68;66.28;96627.53;5113181;28;20406;-62
2021/06/17 06:06:49;;;;;;;2.85;2.55;;;;;;;24.16;63.97;96633.06;5113268;28;20020;-64
2021/06/17 06:09:15;;;;;;;3.05;2.25;;;;;;;24.75;62.61;96634.78;5113248;28;20024;-63
2021/06/17 06:11:40;;;;;;;2.63;2.03;;;;;;;25.31;58.00;96631.34;5113038;28;20031;-63
2021/06/17 06:14:06;;;;;;;6.10;2.25;;;;;;;25.34;55.77;96634.53;5094916;28;20047;-63
2021/06/17 06:16:34;;;;;;;6.38;2.30;;;;;;;25.28;57.76;96639.66;5112899;28;20421;-64
2021/06/17 06:19:00;;;;;;;4.43;2.70;;;;;;;25.16;58.33;96639.84;5094756;28;20023;-62
2021/06/17 06:21:26;;;;;;;4.22;2.45;;;;;;;24.98;56.84;96639.78;5113107;28;20397;-63
2021/06/17 06:23:51;;;;;;;2.05;1.88;;;;;;;24.86;58.32;96641.75;5094859;28;20106;-65
2021/06/17 06:26:17;;;;;;;4.28;2.50;;;;;;;24.70;60.53;96643.25;5097396;28;20019;-65
2021/06/17 06:28:42;;;;;;;2.63;2.42;;;;;;;24.70;60.66;96639.72;5116825;28;20022;-62
2021/06/17 06:31:08;;;;;;;2.83;1.85;;;;;;;24.50;57.91;96645.09;5116878;28;20046;-62
2021/06/17 06:33:34;;;;;;;3.15;2.53;;;;;;;24.38;60.16;96646.25;5116814;28;20550;-63
2021/06/17 06:35:59;;;;;;;5.05;2.60;;;;;;;24.34;57.77;96654.56;5116592;28;20485;-63
2021/06/17 06:38:25;;;;;;;6.78;2.53;;;;;;;24.39;58.32;96653.28;5116678;28;20036;-62
2021/06/17 06:40:52;;;;;;;5.28;2.03;;;;;;;24.42;57.35;96656.53;5116471;28;20055;-62
2021/06/17 06:43:18;;;;;;;4.85;2.22;;;;;;;24.73;59.52;96658.13;5116556;28;20423;-62
2021/06/17 06:45:43;;;;;;;3.67;2.40;;;;;;;25.45;58.47;96654.94;5116502;28;20020;-64
2021/06/17 06:48:10;;;;;;;3.30;2.10;;;;;;;25.73;56.11;96659.41;5116496;28;20072;-62
2021/06/17 06:50:35;;;;;;;1.98;1.88;;;;;;;25.67;55.90;96658.19;5116342;28;20024;-65
2021/06/17 06:53:01;;;;;;;3.70;2.00;;;;;;;26.05;55.04;96652.72;5116303;28;20045;-63
2021/06/17 06:55:27;;;;;;;5.30;2.10;;;;;;;25.96;54.69;96662.50;5116286;28;20022;-61
2021/06/17 06:57:54;;;;;;;6.50;2.15;;;;;;;25.83;55.71;96654.00;5116361;28;20038;-64
2021/06/17 07:00:20;;;;;;;2.22;1.98;;;;;;;26.35;53.05;96663.22;5116272;28;20024;-64
2021/06/17 07:02:46;;;;;;;4.85;1.88;;;;;;;26.93;49.94;96668.09;5116315;28;20020;-64
2021/06/17 07:05:13;;;;;;;3.50;2.00;;;;;;;27.23;48.96;96661.44;5116136;28;20028;-65
2021/06/17 07:07:40;;;;;;;5.10;1.98;;;;;;;27.35;47.73;96675.41;5116108;28;20031;-60
2021/06/17 07:10:07;;;;;;;1.75;1.60;;;;;;;27.49;47.10;96663.22;5116044;28;20028;-62
2021/06/17 07:12:34;;;;;;;4.22;2.20;;;;;;;27.73;48.95;96666.16;5115999;28;20032;-63
2021/06/17 07:14:59;;;;;;;9.77;2.10;;;;;;;28.15;50.85;96667.06;5115772;28;20187;-64
2021/06/17 07:17:26;;;;;;;7.63;1.88;;;;;;;28.53;45.31;96663.88;5115876;28;20096;-64
2021/06/17 07:19:55;;;;;;;3.58;1.63;;;;;;;29.01;43.24;96655.94;5115946;28;20494;-65
2021/06/17 07:22:25;;;;;;;2.00;1.75;;;;;;;29.01;44.53;96653.22;5115870;28;20053;-64
2021/06/17 07:24:53;;;;;;;5.50;1.95;;;;;;;28.86;44.42;96657.59;5115824;28;20024;-61
2021/06/17 07:27:19;;;;;;;6.05;1.80;;;;;;;28.94;44.32;96651.41;5115839;28;20031;-65
2021/06/17 07:29:45;;;;;;;3.10;2.03;;;;;;;29.23;45.59;96649.97;5115707;28;20110;-65
2021/06/17 07:32:10;;;;;;;1.95;1.73;;;;;;;29.52;43.90;96654.72;5115569;28;20111;-62
2021/06/17 07:34:36;;;;;;;2.95;2.28;;;;;;;29.55;41.61;96650.84;5115453;28;20011;-63
2021/06/17 07:37:02;;;;;;;4.38;2.75;;;;;;;29.45;44.23;96653.75;5114812;28;20024;-62
2021/06/17 07:39:28;;;;;;;7.75;2.20;;;;;;;29.46;44.54;96650.03;5115520;28;20448;-65
2021/06/17 07:41:53;;;;;;;3.35;1.80;;;;;;;29.57;43.35;96650.69;5115464;28;20103;-64
2021/06/17 07:44:19;;;;;;;4.50;2.05;;;;;;;29.62;42.76;96654.53;5115513;28;20019;-62
2021/06/17 07:46:45;;;;;;;6.38;2.58;;;;;;;29.58;43.14;96657.72;5115379;28;20027;-62
2021/06/17 07:49:11;;;;;;;2.85;2.10;;;;;;;29.38;42.32;96652.78;5115290;28;20350;-62
2021/06/17 07:51:37;;;;;;;5.20;2.30;;;;;;;29.30;46.21;96660.88;5115314;28;20062;-66
2021/06/17 07:54:03;;;;;;;7.55;2.20;;;;;;;29.06;46.20;96662.63;5115246;28;20073;-64
2021/06/17 07:56:30;;;;;;;4.25;1.98;;;;;;;28.71;43.26;96663.69;5096953;28;20016;-64
2021/06/17 07:58:57;;;;;;;2.45;1.90;;;;;;;28.73;45.39;96661.69;5115129;28;20473;-67
2021/06/17 08:01:23;;;;;;;3.67;2.20;;;;;;;28.93;43.72;96653.28;5115074;28;20469;-66
2021/06/17 08:03:49;;;;;;;2.92;2.03;;;;;;;29.24;41.80;96648.94;5096726;28;20035;-62
2021/06/17 08:06:15;;;;;;;3.50;2.22;;;;;;;29.26;42.01;96646.94;5115008;28;20355;-63
2021/06/17 08:08:42;;;;;;;4.90;1.90;;;;;;;29.33;40.62;96638.97;5114896;28;20026;-64
2021/06/17 08:11:08;;;;;;;2.78;2.30;;;;;;;29.08;40.89;96647.97;5114804;28;20031;-63
2021/06/17 08:13:34;;;;;;;2.08;1.88;;;;;;;29.29;42.53;96643.91;5114755;28;20430;-64
2021/06/17 08:15:59;;;;;;;5.70;2.25;;;;;;;29.19;43.70;96651.34;5114485;28;20566;-64
2021/06/17 08:18:25;;;;;;;3.50;2.00;;;;;;;29.52;43.81;96648.47;5114944;28;20377;-62
2021/06/17 08:20:54;;;;;;;2.90;2.00;;;;;;;29.60;40.70;96647.63;5114615;28;20110;-62
2021/06/17 08:23:21;;;;;;;8.90;1.90;;;;;;;29.41;42.08;96644.34;5114564;28;20034;-65
2021/06/17 08:25:47;;;;;;;7.95;1.88;;;;;;;29.65;41.46;96637.19;5114481;28;20401;-64
2021/06/17 08:28:13;;;;;;;4.75;1.90;;;;;;;29.96;40.45;96638.16;5114471;28;20020;-65
2021/06/17 08:30:39;;;;;;;3.70;2.05;;;;;;;30.03;38.39;96636.41;5114468;28;20425;-61
2021/06/17 08:33:04;;;;;;;2.03;1.73;;;;;;;29.95;38.83;96631.91;5114419;28;20034;-64
2021/06/17 08:35:31;;;;;;;5.65;1.90;;;;;;;29.59;38.36;96646.78;5114329;28;20023;-63
2021/06/17 08:37:57;;;;;;;2.78;1.92;;;;;;;28.75;40.16;96654.25;5114437;28;20469;-66
2021/06/17 08:40:25;;;;;;;2.10;1.70;;;;;;;28.49;42.26;96647.25;5114288;28;20118;-62
2021/06/17 08:42:51;;;;;;;1.95;1.75;;;;;;;28.33;42.96;96648.13;5114223;28;20446;-64
2021/06/17 08:45:17;;;;;;;2.80;1.90;;;;;;;28.57;42.06;96653.63;5095955;28;20054;-63
2021/06/17 08:47:42;;;;;;;2.55;1.85;;;;;;;28.85;40.58;96643.34;5114035;28;20382;-64
2021/06/17 08:50:11;;;;;;;4.25;1.80;;;;;;;28.70;43.36;96647.72;5114160;28;20103;-65
2021/06/17 08:52:41;;;;;;;2.65;2.25;;;;;;;28.61;41.53;96649.59;5114183;28;20472;-61
2021/06/17 08:55:14;;;;;;;3.92;1.92;;;;;;;28.89;42.09;96651.88;5114078;28;20063;-65
2021/06/17 08:57:41;;;;;;;3.13;2.05;;;;;;;29.36;45.14;96647.56;5095706;28;20026;-66
2021/06/17 09:03:05;;;;;;;2.92;1.60;;;;;;;29.80;39.99;96649.88;5114007;28;20039;-63
2021/06/17 09:05:51;;;;;;;6.40;1.85;;;;;;;29.84;40.02;96653.91;5113993;28;20381;-63
2021/06/17 09:08:30;;;;;;;2.40;1.63;;;;;;;29.86;41.58;96641.91;5113941;28;20026;-64
2021/06/17 09:10:55;;;;;;;1.55;1.42;;;;;;;29.70;41.21;96647.41;5113902;28;20036;-65
2021/06/17 09:13:27;;;;;;;2.40;1.70;;;;;;;29.42;38.08;96653.25;5113832;28;20023;-65
2021/06/17 09:15:55;;;;;;;2.33;1.80;;;;;;;29.49;41.24;96651.53;5095279;28;20556;-63
2021/06/17 09:18:24;;;;;;;1.83;1.70;;;;;;;29.56;38.70;96651.69;5113683;28;20019;-67
2021/06/17 09:21:00;;;;;;;1.80;1.70;;;;;;;29.71;40.58;96651.78;5113683;28;20053;-61
2021/06/17 09:23:46;;;;;;;2.05;1.85;;;;;;;29.83;39.87;96647.66;5113666;28;20034;-63
2021/06/17 09:26:23;;;;;;;3.70;1.80;;;;;;;29.81;38.58;96648.84;5113599;28;20027;-65
2021/06/17 09:28:57;;;;;;;3.03;1.60;;;;;;;29.85;39.06;96645.63;5113654;28;20031;-66
2021/06/17 09:31:29;;;;;;;2.13;1.92;;;;;;;29.91;39.58;96646.78;5113599;28;20422;-63
2021/06/17 09:34:02;;;;;;;4.28;2.00;;;;;;;29.43;42.06;96641.47;5113723;28;20024;-65
2021/06/17 09:36:33;;;;;;;2.72;1.85;;;;;;;29.48;39.76;96642.63;5113549;28;20020;-61
2021/06/17 09:39:11;;;;;;;1.70;1.60;;;;;;;29.51;40.75;96642.28;5113517;28;20426;-63
2021/06/17 09:41:39;;;;;;;3.33;1.40;;;;;;;29.56;39.16;96640.94;5113607;28;20074;-64
2021/06/17 09:44:26;;;;;;;2.13;1.60;;;;;;;29.58;39.08;96631.66;5113477;28;20114;-61
2021/06/17 09:47:10;;;;;;;2.10;1.70;;;;;;;29.63;39.47;96629.28;5113438;28;20024;-65
2021/06/17 09:49:38;;;;;;;1.77;1.67;;;;;;;29.48;39.98;96621.06;5113589;28;20035;-62
2021/06/17 09:52:05;;;;;;;2.03;1.60;;;;;;;29.55;37.13;96623.91;5113523;28;20027;-65
2021/06/17 09:54:32;;;;;;;5.35;1.98;;;;;;;29.54;38.35;96619.53;5113336;28;20111;-64
2021/06/17 09:57:01;;;;;;;2.97;1.60;;;;;;;29.33;38.87;96620.97;5113356;28;20080;-61
2021/06/17 09:59:44;;;;;;;3.55;1.55;;;;;;;28.99;41.87;96614.88;5113276;28;20477;-66
2021/06/17 10:02:16;;;;;;;2.38;1.95;;;;;;;28.99;39.40;96614.06;5117319;28;20036;-62
2021/06/17 10:04:42;;;;;;;2.47;1.90;;;;;;;29.13;38.12;96617.84;5117380;28;20377;-65
2021/06/17 10:07:07;;;;;;;2.03;1.60;;;;;;;29.21;37.99;96612.44;5117407;28;20012;-64
2021/06/17 10:09:34;;;;;;;1.40;1.30;;;;;;;29.24;38.44;96612.09;5117288;28;20612;-63
2021/06/17 10:12:01;;;;;;;2.38;1.83;;;;;;;29.16;39.22;96606.75;5117184;28;20026;-65
2021/06/17 10:14:29;;;;;;;3.50;1.90;;;;;;;29.12;39.05;96606.28;5117112;28;20031;-62
2021/06/17 10:16:55;;;;;;;4.60;1.73;;;;;;;28.98;39.78;96610.50;5116832;28;20040;-63
2021/06/17 10:19:21;;;;;;;3.30;1.70;;;;;;;28.91;40.14;96606.81;5116906;28;20102;-64
2021/06/17 10:21:48;;;;;;;3.38;1.60;;;;;;;29.01;40.22;96606.63;5117064;28;20028;-63
2021/06/17 10:24:19;;;;;;;3.03;1.80;;;;;;;29.03;39.94;96595.69;5117075;28;20022;-63
2021/06/17 10:27:05;;;;;;;1.92;1.65;;;;;;;29.09;39.31;96592.31;5116792;28;20019;-65
2021/06/17 10:29:39;;;;;;;5.85;2.20;;;;;;;28.95;39.66;96593.88;5116840;28;20032;-62
2021/06/17 10:32:05;;;;;;;1.92;1.73;;;;;;;28.88;40.13;96596.38;5116889;28;20032;-63
2021/06/17 10:34:35;;;;;;;1.90;1.70;;;;;;;28.87;41.02;96592.03;5116826;28;20016;-63
2021/06/17 10:37:31;;;;;;;5.13;1.77;;;;;;;29.06;39.99;96584.56;5098507;28;20059;-64
2021/06/17 10:40:05;;;;;;;4.05;2.10;;;;;;;29.14;39.78;96581.88;5116546;28;20560;-65
2021/06/17 10:42:35;;;;;;;1.98;1.80;;;;;;;29.13;41.52;96585.56;5116674;28;20042;-65
2021/06/17 10:45:06;;;;;;;3.35;1.95;;;;;;;28.93;39.10;96582.41;5116593;28;20111;-64
2021/06/17 10:47:41;;;;;;;4.05;1.70;;;;;;;28.86;38.96;96585.81;5116444;28;20032;-63
2021/06/17 10:50:14;;;;;;;2.22;1.85;;;;;;;28.80;38.54;96581.09;5098134;28;20059;-63
2021/06/17 10:52:42;;;;;;;5.53;1.92;;;;;;;28.79;39.69;96583.97;5116518;28;20073;-64
2021/06/17 10:55:12;;;;;;;5.78;1.90;;;;;;;28.84;36.96;96576.22;5116353;28;20481;-64
2021/06/17 10:57:47;;;;;;;2.10;1.90;;;;;;;28.98;39.35;96574.66;5116295;28;20019;-63
2021/06/17 11:00:22;;;;;;;4.60;1.95;;;;;;;28.96;38.83;96564.09;5116213;28;20039;-62
2021/06/17 11:02:58;;;;;;;2.08;1.83;;;;;;;28.93;39.27;96572.53;5116144;28;20057;-65
2021/06/17 11:05:48;;;;;;;1.88;1.70;;;;;;;28.72;37.51;96562.31;5116253;28;20093;-64
2021/06/17 11:10:49;;;;;;;7.47;1.92;;;;;;;28.85;40.27;96561.75;5116131;28;20023;-63
2021/06/17 11:13:47;;;;;;;1.55;1.45;;;;;;;28.62;39.18;96557.97;5115030;28;20081;-63
2021/06/17 11:16:13;;;;;;;2.65;1.73;;;;;;;28.60;37.07;96557.28;5021777;28;20054;-62
2021/06/17 11:18:41;;;;;;;2.22;1.45;;;;;;;28.60;37.79;96561.84;5075281;28;20115;-64
2021/06/17 11:21:26;;;;;;;2.95;1.30;;;;;;;28.68;36.04;96559.13;5075204;28;20036;-63
2021/06/17 11:24:06;;;;;;;1.75;1.50;;;;;;;28.57;37.90;96563.03;5075218;28;20025;-61
2021/06/17 11:26:37;;;;;;;4.20;1.40;;;;;;;28.38;36.36;96559.69;5075149;28;20115;-63
2021/06/17 11:29:27;;;;;;;3.42;1.73;;;;;;;28.51;39.50;96555.66;5075028;28;20068;-64
2021/06/17 11:31:54;;;;;;;1.45;1.35;;;;;;;28.67;39.02;96557.44;5076056;28;20104;-65
2021/06/17 11:34:29;;;;;;;1.55;1.45;;;;;;;28.51;37.07;96555.66;5075009;28;20028;-63
2021/06/17 11:36:57;;;;;;;1.92;1.73;;;;;;;28.41;39.02;96549.63;5073662;28;20479;-65
2021/06/17 11:39:27;;;;;;;2.05;1.85;;;;;;;28.41;38.86;96563.06;5074847;28;20024;-65
2021/06/17 11:41:55;;;;;;;2.83;1.95;;;;;;;28.38;37.14;96566.91;5074942;28;20032;-63
2021/06/17 11:44:24;;;;;;;1.75;1.65;;;;;;;28.29;37.83;96557.19;5074803;28;20497;-62
2021/06/17 11:46:51;;;;;;;2.53;1.60;;;;;;;28.29;37.90;96554.50;5074771;28;20028;-62
2021/06/17 11:49:18;;;;;;;2.17;1.95;;;;;;;28.19;38.73;96560.88;5074784;28;20035;-64